D/T METAR WX W/DIR W/SPE G/SPE TEMP DEWP
5/06/20 07:20 EGNX 050620Z 33009KT 300V020 9999 SCT008 SCT036 08/06 Q0995 NNW (330°) 10.4mph 8°C 6°C
5/06/20 06:50 EGNX 050550Z 33012KT 9999 -RA SCT007 BKN013 08/07 Q0994 RERA -RA NNW (330°) 13.8mph 8°C 7°C
5/06/20 06:20 EGNX 050520Z 25015KT 7000 RA BKN017 09/07 Q0994 RESHRA RA WSW (250°) 17.3mph 9°C 7°C
5/06/20 05:50 EGNX 050450Z 24015KT 9999 BKN017 09/06 Q0994 WSW (240°) 17.3mph 9°C 6°C
5/06/20 05:20 EGNX 050420Z 24015KT 9999 BKN021 09/06 Q0994 WSW (240°) 17.3mph 9°C 6°C
5/06/20 04:50 EGNX 050350Z 24015KT 9999 SCT015 09/06 Q0994 WSW (240°) 17.3mph 9°C 6°C
5/06/20 04:20 EGNX 050320Z 24014KT 9999 FEW012 SCT022 09/06 Q0995 WSW (240°) 16.1mph 9°C 6°C
5/06/20 03:50 EGNX 050250Z 24015KT 9999 FEW022 09/06 Q0995 WSW (240°) 17.3mph 9°C 6°C
5/06/20 03:20 EGNX 050220Z 24014KT 9999 SCT021 BKN047 09/06 Q0995 WSW (240°) 16.1mph 9°C 6°C
5/06/20 02:50 EGNX 050150Z 24012KT 9999 BKN022 09/06 Q0996 WSW (240°) 13.8mph 9°C 6°C
5/06/20 02:20 EGNX 050120Z 25011KT 9999 FEW020 BKN044 09/07 Q0996 WSW (250°) 12.7mph 9°C 7°C
5/06/20 01:50 EGNX 050050Z 24013KT 9999 FEW015 SCT027 BKN039 10/07 Q0996 WSW (240°) 15.0mph 10°C 7°C
5/06/20 01:20 EGNX 050020Z 24010KT 9999 SCT022 BKN035 10/08 Q0997 WSW (240°) 11.5mph 10°C 8°C
5/06/20 00:50 EGNX 042350Z 25010KT 9999 BKN021 10/08 Q0997 WSW (250°) 11.5mph 10°C 8°C
5/06/20 00:20 EGNX 042320Z 23010KT 9999 SCT014 BKN034 10/08 Q0997 SW (230°) 11.5mph 10°C 8°C
4/06/20 23:50 EGNX 042250Z 21008KT 9999 SCT022 BKN034 11/08 Q0998 SSW (210°) 9.2mph 11°C 8°C
4/06/20 22:50 EGNX 042150Z 24008KT 9999 SCT048 11/08 Q0998 WSW (240°) 9.2mph 11°C 8°C
4/06/20 22:20 EGNX 042120Z 22009KT 9999 SCT046 11/08 Q0999 SW (220°) 10.4mph 11°C 8°C
4/06/20 21:50 EGNX 042050Z 25007KT 9999 FEW032 SCT046 11/08 Q0999 WSW (250°) 8.1mph 11°C 8°C
4/06/20 21:20 EGNX 042020Z 25008KT 9999 BKN033 BKN049 11/08 Q0999 WSW (250°) 9.2mph 11°C 8°C
4/06/20 20:50 EGNX 041950Z 25010KT 9999 FEW034 BKN049 11/08 Q0999 WSW (250°) 11.5mph 11°C 8°C
4/06/20 20:20 EGNX 041920Z 25011KT 9999 -RA FEW020 SCT045 12/07 Q0999 -RA WSW (250°) 12.7mph 12°C 7°C
4/06/20 19:50 EGNX 041850Z 26010KT CAVOK 12/06 Q0999 W (260°) 11.5mph 12°C 6°C
4/06/20 19:20 EGNX 041820Z 26012KT 230V290 9999 FEW025 13/06 Q0999 W (260°) 13.8mph 13°C 6°C
4/06/20 18:50 EGNX 041750Z 26011KT 9999 FEW042 14/06 Q1000 W (260°) 12.7mph 14°C 6°C
4/06/20 18:20 EGNX 041720Z 25012KT 9999 FEW032 15/07 Q1000 WSW (250°) 13.8mph 15°C 7°C
4/06/20 17:20 EGNX 041620Z 24007KT 220V280 9999 SCT028 12/08 Q1000 WSW (240°) 8.1mph 12°C 8°C
4/06/20 16:50 EGNX 041550Z 24009KT 9999 SCT030 BKN045 12/07 Q1001 WSW (240°) 10.4mph 12°C 7°C
4/06/20 16:20 EGNX 041520Z 25010KT 9999 VCSH SCT022 BKN033 11/08 Q1001 VCSH WSW (250°) 11.5mph 11°C 8°C
4/06/20 15:50 EGNX 041450Z 23006KT 200V260 9999 -RA SCT019 BKN034 BKN044 12/08 Q1001 -RA SW (230°) 6.9mph 12°C 8°C
4/06/20 15:20 EGNX 041420Z 21004KT 190V250 9999 FEW025 BKN048 12/08 Q1002 SSW (210°) 4.6mph 12°C 8°C
4/06/20 14:50 EGNX 041350Z VRB02KT 9999 FEW031 BKN039 11/08 Q1002 N (0°) 2.3mph 11°C 8°C
4/06/20 14:20 EGNX 041320Z VRB02KT 9999 BKN018 10/08 Q1002 N (0°) 2.3mph 10°C 8°C
4/06/20 13:50 EGNX 041250Z 29006KT 260V340 9999 6000SE -RA BKN013 BKN042 10/07 Q1003 -RA WNW (290°) 6.9mph 10°C 7°C
4/06/20 13:20 EGNX 041220Z 25005KT 9999 FEW012 SCT020 11/08 Q1003 WSW (250°) 5.8mph 11°C 8°C
4/06/20 12:20 EGNX 041120Z 23008KT 8000 SCT020 BKN030 09/06 Q1004 SW (230°) 9.2mph 9°C 6°C
4/06/20 11:50 EGNX 041050Z 23012KT 9999 7000W BKN025 BKN043 10/05 Q1004 SW (230°) 13.8mph 10°C 5°C
4/06/20 11:20 EGNX 041020Z 25008KT 9999 BKN031 11/04 Q1004 WSW (250°) 9.2mph 11°C 4°C
4/06/20 10:50 EGNX 040950Z 26007KT 9999 BKN047 11/04 Q1004 W (260°) 8.1mph 11°C 4°C
4/06/20 10:20 EGNX 040920Z 24007KT 9999 BKN043 10/05 Q1004 WSW (240°) 8.1mph 10°C 5°C
4/06/20 09:50 EGNX 040850Z 27004KT 210V300 9999 BKN049 10/04 Q1004 W (270°) 4.6mph 10°C 4°C
4/06/20 09:20 EGNX 040820Z 29005KT 260V330 CAVOK 10/04 Q1005 WNW (290°) 5.8mph 10°C 4°C
4/06/20 08:50 EGNX 040750Z 28007KT CAVOK 10/05 Q1005 W (280°) 8.1mph 10°C 5°C
4/06/20 08:20 EGNX 040720Z 28008KT CAVOK 09/06 Q1005 W (280°) 9.2mph 9°C 6°C
4/06/20 07:50 EGNX 040650Z 31007KT 280V340 CAVOK 09/06 Q1006 NW (310°) 8.1mph 9°C 6°C
4/06/20 07:20 EGNX 040620Z 32005KT 290V350 9999 FEW015 09/06 Q1006 NW (320°) 5.8mph 9°C 6°C
4/06/20 06:50 EGNX 040550Z 32006KT 280V340 9999 FEW015 09/06 Q1006 NW (320°) 6.9mph 9°C 6°C
4/06/20 06:20 EGNX 040520Z 31007KT CAVOK 09/06 Q1006 NW (310°) 8.1mph 9°C 6°C
4/06/20 05:50 EGNX 040450Z 31007KT 9999 FEW016 09/06 Q1006 NW (310°) 8.1mph 9°C 6°C
4/06/20 05:20 EGNX 040420Z 32006KT 9999 FEW015 09/06 Q1006 NW (320°) 6.9mph 9°C 6°C
4/06/20 04:20 EGNX 040320Z 32007KT 290V350 9999 BKN013 09/07 Q1007 NW (320°) 8.1mph 9°C 7°C
4/06/20 03:50 EGNX 040250Z 32008KT 9999 OVC015 09/07 Q1007 NW (320°) 9.2mph 9°C 7°C
4/06/20 03:20 EGNX 040220Z 33009KT 9999 BKN015 09/07 Q1007 NNW (330°) 10.4mph 9°C 7°C
4/06/20 02:50 EGNX 040150Z 32007KT 280V350 9999 BKN011 09/07 Q1007 NW (320°) 8.1mph 9°C 7°C
4/06/20 02:20 EGNX 040120Z 30005KT 280V340 9999 BKN011 09/06 Q1008 WNW (300°) 5.8mph 9°C 6°C
4/06/20 01:50 EGNX 040050Z 31007KT 270V340 9999 BKN014 09/06 Q1008 NW (310°) 8.1mph 9°C 6°C
4/06/20 00:50 EGNX 032350Z 33008KT CAVOK 09/06 Q1009 NNW (330°) 9.2mph 9°C 6°C
4/06/20 00:20 EGNX 032320Z 32009KT CAVOK 09/06 Q1009 NW (320°) 10.4mph 9°C 6°C
3/06/20 23:50 EGNX 032250Z 32010KT CAVOK 10/07 Q1009 NW (320°) 11.5mph 10°C 7°C
3/06/20 23:20 EGNX 032220Z 30006KT 9999 BKN045 10/07 Q1009 WNW (300°) 6.9mph 10°C 7°C
3/06/20 22:50 EGNX 032150Z 32005KT 9999 BKN045 10/07 Q1010 NW (320°) 5.8mph 10°C 7°C
3/06/20 22:20 EGNX 032120Z 33006KT 290V010 9999 FEW034 BKN044 10/07 Q1010 NNW (330°) 6.9mph 10°C 7°C
3/06/20 21:50 EGNX 032050Z 34007KT 310V030 9999 FEW020 BKN031 10/07 Q1010 NNW (340°) 8.1mph 10°C 7°C
3/06/20 21:20 EGNX 032020Z 34008KT 310V040 9999 BKN032 10/07 Q1010 NNW (340°) 9.2mph 10°C 7°C
3/06/20 20:50 EGNX 031950Z 35009KT 320V030 9999 BKN014 BKN035 10/08 Q1010 N (350°) 10.4mph 10°C 8°C
3/06/20 20:20 EGNX 031920Z 35008KT 290V030 9999 BKN014 10/08 Q1010 N (350°) 9.2mph 10°C 8°C
3/06/20 19:50 EGNX 031850Z 35008KT 310V040 9999 BKN013 BKN046 10/08 Q1010 N (350°) 9.2mph 10°C 8°C
3/06/20 19:20 EGNX 031820Z 35009KT 320V030 9999 BKN014 10/08 Q1010 N (350°) 10.4mph 10°C 8°C
3/06/20 18:50 EGNX 031750Z 35008KT 310V030 9999 BKN011 BKN020 10/09 Q1010 N (350°) 9.2mph 10°C 9°C
3/06/20 18:20 EGNX 031720Z 34010KT 300V010 9999 -RA BKN011 10/09 Q1010 -RA NNW (340°) 11.5mph 10°C 9°C
3/06/20 17:50 EGNX 031650Z 35011KT 310V040 9999 BKN010 BKN017 10/09 Q1010 RERA N (350°) 12.7mph 10°C 9°C
3/06/20 17:20 EGNX 031620Z 35009KT 300V030 7000 RA BKN010 11/10 Q1010 RA N (350°) 10.4mph 11°C 10°C
3/06/20 16:50 EGNX 031550Z 36010KT 8000 -RA BKN008 11/10 Q1010 REDZ -RA N (360°) 11.5mph 11°C 10°C
3/06/20 16:20 EGNX 031520Z 34011KT 310V020 6000 DZ BKN006 OVC017 11/10 Q1010 DZ NNW (340°) 12.7mph 11°C 10°C
3/06/20 15:50 EGNX 031450Z 35011KT 320V030 9999 -RA BKN007 12/10 Q1010 RERA -RA N (350°) 12.7mph 12°C 10°C
3/06/20 15:20 EGNX 031420Z 34009KT 310V020 9999 RA BKN008 12/10 Q1010 RA NNW (340°) 10.4mph 12°C 10°C
3/06/20 14:50 EGNX 031350Z 36008KT 310V030 9999 SCT015 13/10 Q1010 N (360°) 9.2mph 13°C 10°C
3/06/20 13:20 EGNX 031220Z 36008KT 320V030 9999 SCT009 BKN023 12/11 Q1010 N (360°) 9.2mph 12°C 11°C
3/06/20 12:50 EGNX 031150Z 36009KT 330V030 9999 -RA BKN009 BKN024 12/11 Q1010 RERA -RA N (360°) 10.4mph 12°C 11°C
3/06/20 11:50 EGNX 031050Z 01008KT 320V030 9999 -RA SCT009 BKN016 13/11 Q1010 -RA N (10°) 9.2mph 13°C 11°C
3/06/20 11:20 EGNX 031020Z 01009KT 330V040 9999 BKN010 13/11 Q1010 N (10°) 10.4mph 13°C 11°C
3/06/20 10:50 EGNX 030950Z 01007KT 9999 BKN010 12/11 Q1010 N (10°) 8.1mph 12°C 11°C
3/06/20 09:50 EGNX 030850Z 01008KT 9999 SCT018 BKN045 12/10 Q1011 N (10°) 9.2mph 12°C 10°C
3/06/20 09:20 EGNX 030820Z 36007KT 330V030 9999 SCT018 BKN045 12/10 Q1011 N (360°) 8.1mph 12°C 10°C
3/06/20 08:50 EGNX 030750Z 01007KT 9999 -RA SCT022 12/10 Q1011 -RA N (10°) 8.1mph 12°C 10°C
3/06/20 07:50 EGNX 030650Z 36007KT 9999 -RA SCT049 12/09 Q1011 -RA N (360°) 8.1mph 12°C 9°C
3/06/20 07:20 EGNX 030620Z 01007KT 330V040 9999 -RA SCT048 12/09 Q1011 -RA N (10°) 8.1mph 12°C 9°C
3/06/20 06:20 EGNX 030520Z 36005KT 310V030 9999 FEW042 13/08 Q1011 N (360°) 5.8mph 13°C 8°C
3/06/20 05:50 EGNX 030450Z 36006KT 300V030 9999 -RA SCT040 13/09 Q1010 -RA N (360°) 6.9mph 13°C 9°C
3/06/20 05:20 EGNX 030420Z 35004KT 310V040 9999 SCT048 14/09 Q1010 N (350°) 4.6mph 14°C 9°C
3/06/20 04:50 EGNX 030350Z 03003KT CAVOK 14/08 Q1010 NNE (30°) 3.5mph 14°C 8°C
3/06/20 04:20 EGNX 030320Z 02004KT 340V050 CAVOK 14/07 Q1011 NNE (20°) 4.6mph 14°C 7°C
3/06/20 03:20 EGNX 030220Z VRB03KT CAVOK 14/07 Q1011 N (0°) 3.5mph 14°C 7°C
3/06/20 02:50 EGNX 030150Z VRB03KT CAVOK 14/07 Q1011 N (0°) 3.5mph 14°C 7°C
3/06/20 02:20 EGNX 030120Z 05005KT CAVOK 14/08 Q1012 NE (50°) 5.8mph 14°C 8°C
3/06/20 01:50 EGNX 030050Z 03004KT CAVOK 14/08 Q1012 NNE (30°) 4.6mph 14°C 8°C